createdAt,value
2023-03-18T00:00:23.581Z,100.00
2023-03-18T00:00:49.722Z,100.00
2023-03-18T00:02:50.124Z,100.00
2023-03-18T00:05:18.273Z,100.00
2023-03-18T00:05:49.742Z,100.00
2023-03-18T00:07:45.380Z,100.00
2023-03-18T00:10:14.044Z,100.00
2023-03-18T00:10:49.732Z,100.00
2023-03-18T00:12:41.619Z,100.00
2023-03-18T00:15:11.039Z,100.00
2023-03-18T00:15:49.762Z,100.00
2023-03-18T00:17:37.811Z,100.00
2023-03-18T00:20:06.836Z,100.00
2023-03-18T00:20:49.736Z,100.00
2023-03-18T00:22:38.979Z,100.00
2023-03-18T00:25:08.062Z,100.00
2023-03-18T00:25:49.707Z,100.00
2023-03-18T00:27:35.878Z,100.00
2023-03-18T00:30:05.041Z,100.00
2023-03-18T00:30:49.736Z,100.00
2023-03-18T00:32:31.706Z,100.00
2023-03-18T00:34:58.432Z,100.00
2023-03-18T00:35:49.812Z,100.00
2023-03-18T00:37:30.433Z,100.00
2023-03-18T00:40:06.026Z,100.00
2023-03-18T00:40:49.731Z,100.00
2023-03-18T00:42:39.093Z,100.00
2023-03-18T00:45:07.986Z,100.00
2023-03-18T00:45:49.744Z,100.00
2023-03-18T00:47:35.898Z,100.00
2023-03-18T00:50:03.350Z,100.00
2023-03-18T00:50:49.746Z,100.00
2023-03-18T00:52:32.109Z,100.00
2023-03-18T00:54:58.952Z,100.00
2023-03-18T00:55:49.747Z,100.00
2023-03-18T00:57:25.525Z,100.00
2023-03-18T00:59:52.139Z,100.00
2023-03-18T01:00:49.789Z,100.00
2023-03-18T01:02:19.133Z,100.00
2023-03-18T01:04:45.641Z,100.00
2023-03-18T01:05:49.746Z,100.00
2023-03-18T01:07:13.275Z,100.00
2023-03-18T01:09:40.742Z,100.00
2023-03-18T01:10:49.743Z,100.00
2023-03-18T01:12:08.766Z,100.00
2023-03-18T01:14:36.637Z,100.00
2023-03-18T01:15:49.761Z,100.00
2023-03-18T01:17:04.531Z,100.00
2023-03-18T01:19:30.979Z,100.00
2023-03-18T01:20:49.768Z,100.00
2023-03-18T01:21:57.702Z,100.00
2023-03-18T01:24:24.048Z,100.00
2023-03-18T01:25:49.774Z,100.00
2023-03-18T01:26:50.614Z,100.00
2023-03-18T01:29:17.760Z,100.00
2023-03-18T01:30:49.722Z,100.00
2023-03-18T01:31:45.364Z,100.00
2023-03-18T01:34:12.064Z,100.00
2023-03-18T01:35:49.785Z,100.00
2023-03-18T01:36:38.467Z,100.00
2023-03-18T01:39:06.290Z,100.00
2023-03-18T01:40:49.800Z,100.00
2023-03-18T01:41:33.021Z,100.00
2023-03-18T01:43:59.743Z,100.00
2023-03-18T01:45:49.765Z,100.00
2023-03-18T01:46:33.981Z,100.00
2023-03-18T01:49:04.152Z,100.00
2023-03-18T01:50:49.765Z,100.00
2023-03-18T01:51:31.049Z,100.00
2023-03-18T01:54:00.642Z,100.00
2023-03-18T01:55:49.727Z,100.00
2023-03-18T01:56:27.840Z,100.00
2023-03-18T01:58:57.336Z,100.00
2023-03-18T02:00:49.772Z,100.00
2023-03-18T02:01:31.983Z,100.00
2023-03-18T02:03:59.728Z,100.00
2023-03-18T02:05:49.781Z,100.00
2023-03-18T02:06:26.115Z,100.00
2023-03-18T02:08:52.918Z,100.00
2023-03-18T02:10:49.810Z,100.00
2023-03-18T02:11:19.776Z,100.00
2023-03-18T02:13:46.834Z,100.00
2023-03-18T02:15:49.788Z,100.00
2023-03-18T02:16:22.755Z,100.00
2023-03-18T02:18:57.628Z,100.00
2023-03-18T02:20:49.771Z,100.00
2023-03-18T02:21:33.382Z,100.00
2023-03-18T02:24:31.314Z,100.00
2023-03-18T02:25:49.827Z,100.00
2023-03-18T02:27:02.419Z,100.00
2023-03-18T02:29:33.119Z,100.00
2023-03-18T02:30:49.804Z,100.00
2023-03-18T02:32:04.053Z,100.00
2023-03-18T02:34:31.781Z,100.00
2023-03-18T02:35:49.946Z,100.00
2023-03-18T02:36:58.411Z,100.00
2023-03-18T02:39:24.991Z,100.00
2023-03-18T02:40:49.777Z,100.00
2023-03-18T02:41:51.762Z,100.00
2023-03-18T02:44:20.091Z,100.00
2023-03-18T02:45:49.781Z,100.00
2023-03-18T02:46:59.329Z,100.00
2023-03-18T02:49:27.514Z,100.00
2023-03-18T02:50:49.746Z,100.00
2023-03-18T02:51:54.936Z,100.00
2023-03-18T02:54:24.375Z,100.00
2023-03-18T02:55:49.727Z,100.00
2023-03-18T02:56:51.397Z,100.00
2023-03-18T02:59:18.513Z,100.00
2023-03-18T03:00:49.777Z,100.00
2023-03-18T03:01:47.659Z,100.00
2023-03-18T03:04:15.240Z,100.00
2023-03-18T03:05:49.774Z,100.00
2023-03-18T03:06:42.923Z,100.00
2023-03-18T03:09:11.546Z,100.00
2023-03-18T03:10:49.770Z,100.00
2023-03-18T03:11:37.914Z,100.00
2023-03-18T03:14:04.334Z,100.00
2023-03-18T03:15:49.788Z,100.00
2023-03-18T03:16:31.479Z,100.00
2023-03-18T03:18:58.812Z,100.00
2023-03-18T03:20:49.782Z,100.00
2023-03-18T03:21:25.326Z,100.00
2023-03-18T03:23:52.301Z,100.00
2023-03-18T03:25:49.803Z,100.00
2023-03-18T03:26:19.257Z,100.00
2023-03-18T03:28:46.395Z,100.00
2023-03-18T03:30:49.804Z,100.00
2023-03-18T03:31:13.071Z,100.00
2023-03-18T03:33:41.809Z,100.00
2023-03-18T03:35:49.827Z,100.00
2023-03-18T03:36:17.785Z,100.00
2023-03-18T03:38:45.103Z,100.00
2023-03-18T03:40:49.760Z,100.00
2023-03-18T03:41:13.136Z,100.00
2023-03-18T03:43:40.487Z,100.00
2023-03-18T03:45:49.772Z,100.00
2023-03-18T03:46:09.351Z,100.00
2023-03-18T03:48:36.353Z,100.00
2023-03-18T03:50:49.758Z,100.00
2023-03-18T03:51:07.137Z,100.00
2023-03-18T03:53:34.340Z,100.00
2023-03-18T03:55:49.785Z,100.00
2023-03-18T03:56:00.946Z,100.00
2023-03-18T03:58:28.142Z,100.00
2023-03-18T04:00:49.814Z,100.00
2023-03-18T04:00:54.455Z,100.00
2023-03-18T04:03:20.887Z,100.00
2023-03-18T04:05:47.729Z,100.00
2023-03-18T04:05:49.825Z,100.00
2023-03-18T04:08:14.283Z,100.00
2023-03-18T04:10:40.775Z,100.00
2023-03-18T04:10:49.796Z,100.00
2023-03-18T04:13:07.529Z,100.00
2023-03-18T04:15:34.572Z,100.00
2023-03-18T04:15:49.842Z,100.00
2023-03-18T04:18:06.650Z,100.00
2023-03-18T04:20:35.301Z,100.00
2023-03-18T04:20:49.785Z,100.00
2023-03-18T04:23:02.529Z,100.00
2023-03-18T04:25:29.723Z,100.00
2023-03-18T04:25:49.788Z,100.00
2023-03-18T04:27:56.599Z,100.00
2023-03-18T04:30:25.350Z,100.00
2023-03-18T04:30:49.775Z,100.00
2023-03-18T04:32:52.547Z,100.00
2023-03-18T04:35:19.686Z,100.00
2023-03-18T04:35:49.829Z,100.00
2023-03-18T04:37:46.273Z,100.00
2023-03-18T04:40:13.115Z,100.00
2023-03-18T04:40:49.830Z,100.00
2023-03-18T04:42:39.871Z,100.00
2023-03-18T04:45:07.212Z,100.00
2023-03-18T04:45:49.752Z,100.00
2023-03-18T04:47:35.620Z,100.00
2023-03-18T04:50:04.124Z,100.00
2023-03-18T04:50:49.759Z,100.00
2023-03-18T04:52:30.482Z,100.00
2023-03-18T04:54:57.021Z,100.00
2023-03-18T04:55:49.788Z,100.00
2023-03-18T04:57:23.709Z,100.00
2023-03-18T04:59:50.048Z,100.00
2023-03-18T05:00:49.856Z,100.00
2023-03-18T05:02:16.510Z,100.00
2023-03-18T05:04:43.052Z,100.00
2023-03-18T05:05:49.786Z,100.00
2023-03-18T05:07:14.503Z,100.00
2023-03-18T05:09:41.450Z,100.00
2023-03-18T05:10:49.766Z,100.00
2023-03-18T05:12:15.017Z,100.00
2023-03-18T05:14:43.449Z,100.00
2023-03-18T05:15:49.774Z,100.00
2023-03-18T05:17:15.580Z,100.00
2023-03-18T05:19:47.579Z,100.00
2023-03-18T05:20:49.788Z,100.00
2023-03-18T05:22:16.453Z,100.00
2023-03-18T05:24:43.924Z,100.00
2023-03-18T05:25:49.759Z,100.00
2023-03-18T05:27:10.802Z,100.00
2023-03-18T05:29:41.069Z,100.00
2023-03-18T05:30:49.769Z,100.00
2023-03-18T05:32:08.979Z,100.00
2023-03-18T05:34:39.805Z,100.00
2023-03-18T05:35:49.873Z,100.00
2023-03-18T05:37:10.489Z,100.00
2023-03-18T05:39:37.321Z,100.00
2023-03-18T05:40:49.770Z,100.00
2023-03-18T05:42:04.870Z,100.00
2023-03-18T05:44:31.805Z,100.00
2023-03-18T05:45:49.812Z,100.00
2023-03-18T05:46:58.756Z,100.00
2023-03-18T05:49:27.138Z,100.00
2023-03-18T05:50:49.783Z,100.00
2023-03-18T05:51:54.949Z,100.00
2023-03-18T05:54:21.953Z,100.00
2023-03-18T05:55:49.779Z,100.00
2023-03-18T05:56:48.445Z,100.00
2023-03-18T05:59:15.379Z,100.00
2023-03-18T06:00:49.782Z,100.00
2023-03-18T06:01:42.105Z,100.00
2023-03-18T06:04:09.158Z,100.00
2023-03-18T06:05:49.789Z,100.00
2023-03-18T06:06:39.391Z,100.00
2023-03-18T06:09:09.709Z,100.00
2023-03-18T06:10:49.778Z,100.00
2023-03-18T06:11:36.901Z,100.00
2023-03-18T06:14:04.801Z,100.00
2023-03-18T06:15:49.770Z,100.00
2023-03-18T06:16:32.784Z,100.00
2023-03-18T06:19:00.123Z,100.00
2023-03-18T06:20:49.848Z,100.00
2023-03-18T06:21:30.074Z,100.00
2023-03-18T06:23:56.512Z,100.00
2023-03-18T06:25:49.830Z,100.00
2023-03-18T06:26:23.633Z,100.00
2023-03-18T06:28:49.971Z,100.00
2023-03-18T06:30:49.834Z,100.00
2023-03-18T06:31:17.045Z,100.00
2023-03-18T06:33:43.580Z,100.00
2023-03-18T06:35:49.840Z,100.00
2023-03-18T06:36:10.688Z,100.00
2023-03-18T06:38:38.008Z,100.00
2023-03-18T06:40:49.790Z,100.00
2023-03-18T06:41:04.754Z,100.00
2023-03-18T06:43:31.189Z,100.00
2023-03-18T06:45:49.854Z,100.00
2023-03-18T06:45:58.050Z,100.00
2023-03-18T06:48:25.024Z,100.00
2023-03-18T06:50:49.886Z,100.00
2023-03-18T06:50:51.415Z,100.00
2023-03-18T06:53:18.617Z,100.00
2023-03-18T06:55:45.071Z,100.00
2023-03-18T06:55:49.912Z,100.00
2023-03-18T06:58:14.020Z,100.00
2023-03-18T07:00:42.266Z,100.00
2023-03-18T07:00:49.960Z,100.00
2023-03-18T07:03:08.639Z,100.00
2023-03-18T07:05:35.283Z,100.00
2023-03-18T07:05:49.819Z,100.00
2023-03-18T07:08:02.100Z,100.00
2023-03-18T07:10:30.845Z,100.00
2023-03-18T07:10:49.812Z,100.00
2023-03-18T07:12:57.867Z,100.00
2023-03-18T07:15:27.595Z,100.00
2023-03-18T07:15:49.815Z,100.00
2023-03-18T07:17:54.848Z,100.00
2023-03-18T07:20:22.372Z,100.00
2023-03-18T07:20:49.794Z,100.00
2023-03-18T07:22:48.914Z,100.00
2023-03-18T07:25:15.551Z,100.00
2023-03-18T07:25:50.774Z,100.00
2023-03-18T07:27:42.469Z,100.00
2023-03-18T07:30:10.003Z,100.00
2023-03-18T07:30:49.855Z,100.00
2023-03-18T07:32:40.115Z,100.00
2023-03-18T07:35:07.837Z,100.00
2023-03-18T07:35:49.816Z,100.00
2023-03-18T07:37:35.913Z,100.00
2023-03-18T07:40:02.774Z,100.00
2023-03-18T07:40:49.785Z,100.00
2023-03-18T07:42:29.096Z,100.00
2023-03-18T07:44:55.591Z,100.00
2023-03-18T07:45:49.797Z,100.00
2023-03-18T07:47:23.952Z,100.00
2023-03-18T07:49:51.869Z,100.00
2023-03-18T07:50:49.979Z,100.00
2023-03-18T07:52:19.185Z,100.00
2023-03-18T07:54:45.959Z,100.00
2023-03-18T07:55:49.805Z,100.00
2023-03-18T07:57:13.084Z,100.00
2023-03-18T07:59:39.551Z,100.00
2023-03-18T08:00:49.840Z,100.00
2023-03-18T08:02:10.764Z,100.00
2023-03-18T08:04:37.672Z,100.00
2023-03-18T08:05:49.892Z,100.00
2023-03-18T08:07:04.154Z,100.00
2023-03-18T08:09:30.563Z,100.00
2023-03-18T08:10:49.810Z,100.00
2023-03-18T08:11:59.311Z,100.00
2023-03-18T08:14:26.350Z,100.00
2023-03-18T08:15:49.807Z,100.00
2023-03-18T08:16:54.861Z,100.00
2023-03-18T08:19:21.618Z,100.00
2023-03-18T08:20:49.786Z,100.00
2023-03-18T08:21:48.574Z,100.00
2023-03-18T08:24:15.120Z,100.00
2023-03-18T08:25:49.830Z,100.00
2023-03-18T08:26:41.574Z,100.00
2023-03-18T08:29:08.037Z,100.00
2023-03-18T08:30:49.782Z,100.00
2023-03-18T08:31:34.673Z,100.00
2023-03-18T08:34:01.422Z,98.89
2023-03-18T08:35:49.835Z,98.89
2023-03-18T08:36:28.812Z,96.46
2023-03-18T08:38:57.069Z,95.08
2023-03-18T08:40:49.795Z,95.08
2023-03-18T08:41:25.672Z,93.38
2023-03-18T08:43:53.181Z,91.31
2023-03-18T08:45:49.874Z,91.31
2023-03-18T08:46:19.815Z,90.09
2023-03-18T08:48:46.789Z,88.58
2023-03-18T08:50:49.831Z,88.58
2023-03-18T08:51:13.469Z,87.49
2023-03-18T08:53:40.769Z,86.68
2023-03-18T08:55:49.796Z,86.68
2023-03-18T08:56:08.143Z,87.19
2023-03-18T08:58:34.962Z,87.21
2023-03-18T09:00:49.994Z,87.21
2023-03-18T09:01:03.566Z,87.48
2023-03-18T09:03:30.384Z,86.67
2023-03-18T09:05:49.820Z,86.67
2023-03-18T09:05:57.530Z,85.78
2023-03-18T09:08:24.543Z,84.75
2023-03-18T09:10:53.733Z,85.02
2023-03-18T09:10:53.921Z,85.02
2023-03-18T09:13:22.062Z,83.66
2023-03-18T09:15:48.590Z,82.29
2023-03-18T09:15:49.771Z,82.29
2023-03-18T09:18:27.734Z,81.15
2023-03-18T09:20:49.779Z,81.15
2023-03-18T09:20:54.112Z,80.54
2023-03-18T09:23:21.358Z,79.63
2023-03-18T09:25:48.291Z,79.32
2023-03-18T09:25:49.815Z,79.32
2023-03-18T09:28:14.832Z,78.22
2023-03-18T09:30:42.399Z,77.72
2023-03-18T09:30:49.833Z,77.72
2023-03-18T09:33:11.274Z,77.48
2023-03-18T09:35:38.521Z,76.70
2023-03-18T09:35:49.789Z,76.70
2023-03-18T09:38:06.556Z,76.45
2023-03-18T09:40:38.436Z,75.07
2023-03-18T09:40:49.813Z,75.07
2023-03-18T09:43:14.376Z,74.17
2023-03-18T09:46:05.660Z,75.52
2023-03-18T09:46:06.350Z,75.52
2023-03-18T09:48:44.116Z,74.95
2023-03-18T09:50:49.819Z,74.95
2023-03-18T09:51:33.225Z,74.46
2023-03-18T09:54:07.690Z,74.40
2023-03-18T09:55:49.797Z,74.40
2023-03-18T09:56:35.870Z,73.59
2023-03-18T09:59:05.968Z,72.73
2023-03-18T10:00:49.817Z,72.73
2023-03-18T10:01:36.685Z,73.65
2023-03-18T10:04:10.939Z,73.66
2023-03-18T10:05:49.827Z,73.66
2023-03-18T10:06:43.145Z,72.44
2023-03-18T10:09:34.056Z,71.63
2023-03-18T10:10:49.819Z,71.63
2023-03-18T10:12:16.870Z,71.38
2023-03-18T10:14:50.882Z,70.64
2023-03-18T10:15:49.870Z,23
2023-03-18T10:17:17.978Z,69.95
2023-03-18T10:19:57.424Z,68.60
2023-03-18T10:20:49.805Z,68.60
2023-03-18T10:22:26.996Z,68.80
2023-03-18T10:25:12.401Z,69.14
2023-03-18T10:25:49.851Z,69.14
2023-03-18T10:28:05.493Z,69.35
2023-03-18T10:30:42.997Z,68.99
2023-03-18T10:30:49.824Z,23
2023-03-18T10:33:45.213Z,68.90
2023-03-18T10:35:49.826Z,68.90
2023-03-18T10:36:19.611Z,69.70
2023-03-18T10:38:49.762Z,69.14
2023-03-18T10:40:49.818Z,69.14
2023-03-18T10:41:43.954Z,69.49
2023-03-18T10:44:31.010Z,67.86
2023-03-18T10:45:49.843Z,67.86
2023-03-18T10:47:33.718Z,65.92
2023-03-18T10:50:23.890Z,65.38
2023-03-18T10:50:49.804Z,65.38
2023-03-18T10:52:59.000Z,63.95
2023-03-18T10:55:38.082Z,63.34
2023-03-18T10:55:49.957Z,63.34
2023-03-18T10:58:16.992Z,64.27
2023-03-18T11:00:45.045Z,61.96
2023-03-18T11:00:49.797Z,61.96
2023-03-18T11:03:30.570Z,61.78
2023-03-18T11:05:49.836Z,61.78
2023-03-18T11:05:58.984Z,62.80
2023-03-18T11:08:34.682Z,62.19
2023-03-18T11:10:49.820Z,62.19
2023-03-18T11:11:35.665Z,61.72
2023-03-18T11:14:05.061Z,60.97
2023-03-18T11:15:49.940Z,60.97
2023-03-18T11:16:34.440Z,61.72
2023-03-18T11:19:09.134Z,63.48
2023-03-18T11:20:49.836Z,63.48
2023-03-18T11:21:37.482Z,64.32
2023-03-18T11:24:24.479Z,63.41
2023-03-18T11:25:49.941Z,63.41
2023-03-18T11:26:56.573Z,63.87
2023-03-18T11:29:27.348Z,64.16
2023-03-18T11:30:49.807Z,64.16
2023-03-18T11:31:58.279Z,63.66
2023-03-18T11:34:29.164Z,61.67
2023-03-18T11:35:49.925Z,61.67
2023-03-18T11:37:01.094Z,59.81
2023-03-18T11:39:30.873Z,59.16
2023-03-18T11:40:49.806Z,59.16
2023-03-18T11:41:59.829Z,58.42
2023-03-18T11:44:33.607Z,58.73
2023-03-18T11:45:49.841Z,58.73
2023-03-18T11:47:13.438Z,57.22
2023-03-18T11:49:39.897Z,57.53
2023-03-18T11:50:49.840Z,57.53
2023-03-18T11:52:31.485Z,57.20
2023-03-18T11:55:35.104Z,58.28
2023-03-18T11:55:49.846Z,58.28
2023-03-18T11:58:13.312Z,58.03
2023-03-18T12:01:06.797Z,59.15
2023-03-18T12:01:06.954Z,59.15
2023-03-18T12:03:58.659Z,58.69
2023-03-18T12:05:49.808Z,58.69
2023-03-18T12:06:28.591Z,59.07
2023-03-18T12:09:17.860Z,59.36
2023-03-18T12:10:49.814Z,59.36
2023-03-18T12:12:03.051Z,59.16
2023-03-18T12:14:44.944Z,58.48
2023-03-18T12:15:49.811Z,58.48
2023-03-18T12:17:33.928Z,57.17
2023-03-18T12:20:29.231Z,58.41
2023-03-18T12:20:49.817Z,58.41
2023-03-18T12:23:21.300Z,58.31
2023-03-18T12:26:02.379Z,59.22
2023-03-18T12:26:02.510Z,59.22
2023-03-18T12:28:50.776Z,58.47
2023-03-18T12:30:49.905Z,58.47
2023-03-18T12:31:52.111Z,57.81
2023-03-18T12:34:55.887Z,57.41
2023-03-18T12:35:50.148Z,57.41
2023-03-18T12:38:10.300Z,57.26
2023-03-18T12:40:45.450Z,56.90
2023-03-18T12:40:49.835Z,56.90
2023-03-18T12:43:38.152Z,56.70
2023-03-18T12:45:49.865Z,56.70
2023-03-18T12:46:14.710Z,57.70
2023-03-18T12:48:52.025Z,56.62
2023-03-18T12:50:49.834Z,56.62
2023-03-18T12:51:25.440Z,57.23
2023-03-18T12:53:55.614Z,55.13
2023-03-18T12:55:49.821Z,55.13
2023-03-18T12:56:25.729Z,55.55
2023-03-18T12:59:09.338Z,55.70
2023-03-18T13:00:49.988Z,55.70
2023-03-18T13:01:53.004Z,56.13
2023-03-18T13:04:26.650Z,57.26
2023-03-18T13:05:49.845Z,57.26
2023-03-18T13:07:03.408Z,56.79
2023-03-18T13:10:03.895Z,57.82
2023-03-18T13:10:49.833Z,57.82
2023-03-18T13:12:35.369Z,57.41
2023-03-18T13:15:47.338Z,56.98
2023-03-18T13:15:51.835Z,56.98
2023-03-18T13:18:20.661Z,57.88
2023-03-18T13:20:49.287Z,57.87
2023-03-18T13:20:49.814Z,57.87
2023-03-18T13:24:02.848Z,58.89
2023-03-18T13:25:49.842Z,58.89
2023-03-18T13:26:35.386Z,58.84
2023-03-18T13:29:17.017Z,59.36
2023-03-18T13:30:49.899Z,59.36
2023-03-18T13:32:17.266Z,59.81
2023-03-18T13:35:27.747Z,60.39
2023-03-18T13:35:49.946Z,60.39
2023-03-18T13:38:02.913Z,61.34
2023-03-18T13:40:50.948Z,63.89
2023-03-18T13:40:51.105Z,63.89
2023-03-18T13:43:20.409Z,64.96
2023-03-18T13:45:50.748Z,65.50
2023-03-18T13:45:50.966Z,65.50
2023-03-18T13:48:40.373Z,66.37
2023-03-18T13:50:49.890Z,66.37
2023-03-18T13:51:25.416Z,65.29
2023-03-18T13:53:59.306Z,64.75
2023-03-18T13:55:49.913Z,64.75
2023-03-18T13:56:43.819Z,64.54
2023-03-18T13:59:35.511Z,63.34
2023-03-18T14:00:49.903Z,63.34
2023-03-18T14:02:21.101Z,63.71
2023-03-18T14:04:51.780Z,63.72
2023-03-18T14:05:49.895Z,63.72
2023-03-18T14:07:20.570Z,63.62
2023-03-18T14:09:58.554Z,63.01
2023-03-18T14:10:49.869Z,63.01
2023-03-18T14:12:40.149Z,64.02
2023-03-18T14:15:12.870Z,65.30
2023-03-18T14:15:50.001Z,65.30
2023-03-18T14:17:47.814Z,70.34
2023-03-18T14:20:17.659Z,71.96
2023-03-18T14:20:49.903Z,71.96
2023-03-18T14:23:07.790Z,75.03
2023-03-18T14:25:43.162Z,77.14
2023-03-18T14:25:49.904Z,77.14
2023-03-18T14:28:09.959Z,77.86
2023-03-18T14:30:37.056Z,79.91
2023-03-18T14:30:49.881Z,79.91
2023-03-18T14:33:07.026Z,80.81
2023-03-18T14:35:47.081Z,80.32
2023-03-18T14:35:50.008Z,80.32
2023-03-18T14:38:32.860Z,78.17
2023-03-18T14:40:49.898Z,78.17
2023-03-18T14:41:01.512Z,76.75
2023-03-18T14:43:33.813Z,75.57
2023-03-18T14:45:49.976Z,75.57
2023-03-18T14:46:05.922Z,74.20
2023-03-18T14:48:34.399Z,73.07
2023-03-18T14:50:49.977Z,73.07
2023-03-18T14:51:04.979Z,72.19
2023-03-18T14:53:40.201Z,71.27
2023-03-18T14:55:49.887Z,71.27
2023-03-18T14:56:17.498Z,69.57
2023-03-18T14:58:47.429Z,68.85
2023-03-18T15:00:49.909Z,68.85
2023-03-18T15:01:17.568Z,67.94
2023-03-18T15:03:49.779Z,67.75
2023-03-18T15:05:49.908Z,67.75
2023-03-18T15:06:20.409Z,66.30
2023-03-18T15:08:52.674Z,66.35
2023-03-18T15:10:49.878Z,66.35
2023-03-18T15:11:21.840Z,67.22
2023-03-18T15:13:48.586Z,66.94
2023-03-18T15:15:49.909Z,66.94
2023-03-18T15:16:20.011Z,66.60
2023-03-18T15:18:52.746Z,66.43
2023-03-18T15:20:49.908Z,66.43
2023-03-18T15:21:40.900Z,66.65
2023-03-18T15:24:22.964Z,67.09
2023-03-18T15:25:49.932Z,67.09
2023-03-18T15:27:04.003Z,67.53
2023-03-18T15:29:37.036Z,68.41
2023-03-18T15:30:49.912Z,68.41
2023-03-18T15:32:14.735Z,67.97
2023-03-18T15:34:43.174Z,67.88
2023-03-18T15:35:50.026Z,67.88
2023-03-18T15:37:30.952Z,67.23
2023-03-18T15:39:58.975Z,66.76
2023-03-18T15:40:50.012Z,66.76
2023-03-18T15:42:28.161Z,66.52
2023-03-18T15:45:01.442Z,66.38
2023-03-18T15:45:50.120Z,66.38
2023-03-18T15:47:31.532Z,65.69
2023-03-18T15:50:01.609Z,66.01
2023-03-18T15:50:50.947Z,66.01
2023-03-18T15:52:33.904Z,65.93
2023-03-18T15:55:22.277Z,65.19
2023-03-18T15:55:49.887Z,65.19
2023-03-18T15:57:48.825Z,63.76
2023-03-18T16:00:20.832Z,62.85
2023-03-18T16:00:49.988Z,62.85
2023-03-18T16:02:47.808Z,62.19
2023-03-18T16:05:19.723Z,61.29
2023-03-18T16:05:49.910Z,61.29
2023-03-18T16:07:48.281Z,61.19
2023-03-18T16:10:19.321Z,60.04
2023-03-18T16:10:49.917Z,60.04
2023-03-18T16:13:00.480Z,60.71
2023-03-18T16:15:29.616Z,61.09
2023-03-18T16:15:50.943Z,61.09
2023-03-18T16:17:56.567Z,61.50
2023-03-18T16:20:28.897Z,62.05
2023-03-18T16:20:49.892Z,62.05
2023-03-18T16:22:56.444Z,62.35
2023-03-18T16:25:24.703Z,63.20
2023-03-18T16:25:49.911Z,63.20
2023-03-18T16:27:56.282Z,63.00
2023-03-18T16:30:25.950Z,63.80
2023-03-18T16:30:49.929Z,63.80
2023-03-18T16:32:53.704Z,64.01
2023-03-18T16:35:26.579Z,64.04
2023-03-18T16:35:49.959Z,64.04
2023-03-18T16:37:53.524Z,64.07
2023-03-18T16:40:22.885Z,64.70
2023-03-18T16:40:49.898Z,64.70
2023-03-18T16:42:50.329Z,64.54
2023-03-18T16:45:19.720Z,64.88
2023-03-18T16:45:49.950Z,64.88
2023-03-18T16:47:49.189Z,64.97
2023-03-18T16:50:23.852Z,64.84
2023-03-18T16:50:49.931Z,64.84
2023-03-18T16:52:54.809Z,65.43
2023-03-18T16:55:22.579Z,65.84
2023-03-18T16:55:49.940Z,65.84
2023-03-18T16:57:55.839Z,66.49
2023-03-18T17:00:24.782Z,67.64
2023-03-18T17:00:50.049Z,67.64
2023-03-18T17:02:52.503Z,68.01
2023-03-18T17:05:21.017Z,68.40
2023-03-18T17:05:49.918Z,68.40
2023-03-18T17:07:48.368Z,68.74
2023-03-18T17:10:18.332Z,68.65
2023-03-18T17:10:49.931Z,68.65
2023-03-18T17:13:06.780Z,69.71
2023-03-18T17:15:38.152Z,69.70
2023-03-18T17:15:49.883Z,69.70
2023-03-18T17:18:06.564Z,69.81
2023-03-18T17:20:33.908Z,70.19
2023-03-18T17:20:49.926Z,70.19
2023-03-18T17:23:01.354Z,69.96
2023-03-18T17:25:32.751Z,69.71
2023-03-18T17:25:50.984Z,69.71
2023-03-18T17:28:02.959Z,69.39
2023-03-18T17:30:38.535Z,69.72
2023-03-18T17:30:49.956Z,69.72
2023-03-18T17:33:22.950Z,69.73
2023-03-18T17:35:49.933Z,70.47
2023-03-18T17:35:50.163Z,70.47
2023-03-18T17:38:16.754Z,70.92
2023-03-18T17:40:43.378Z,72.07
2023-03-18T17:40:49.926Z,72.07
2023-03-18T17:43:27.706Z,72.70
2023-03-18T17:45:49.925Z,72.70
2023-03-18T17:45:56.744Z,74.17
2023-03-18T17:48:28.931Z,74.26
2023-03-18T17:50:49.963Z,74.26
2023-03-18T17:51:04.791Z,75.62
2023-03-18T17:53:37.390Z,76.49
2023-03-18T17:55:49.936Z,76.49
2023-03-18T17:56:08.377Z,76.99
2023-03-18T17:58:35.414Z,78.07
2023-03-18T18:00:50.106Z,78.07
2023-03-18T18:01:09.253Z,78.98
2023-03-18T18:03:38.751Z,78.70
2023-03-18T18:05:49.881Z,78.70
2023-03-18T18:06:16.176Z,79.11
2023-03-18T18:08:42.634Z,79.24
2023-03-18T18:10:49.995Z,79.24
2023-03-18T18:11:24.108Z,79.94
2023-03-18T18:13:56.489Z,80.75
2023-03-18T18:15:50.082Z,80.75
2023-03-18T18:16:24.236Z,81.09
2023-03-18T18:18:50.834Z,81.40
2023-03-18T18:20:49.921Z,81.40
2023-03-18T18:21:23.683Z,82.72
2023-03-18T18:23:50.466Z,83.62
2023-03-18T18:25:50.929Z,83.62
2023-03-18T18:26:19.959Z,84.65
2023-03-18T18:28:48.684Z,84.94
2023-03-18T18:30:49.904Z,84.94
2023-03-18T18:31:17.827Z,85.48
2023-03-18T18:33:45.552Z,85.38
2023-03-18T18:35:49.964Z,85.38
2023-03-18T18:36:13.423Z,86.23
2023-03-18T18:38:40.473Z,86.12
2023-03-18T18:40:49.914Z,86.12
2023-03-18T18:41:07.685Z,86.12
2023-03-18T18:43:34.368Z,86.23
2023-03-18T18:45:49.951Z,86.23
2023-03-18T18:46:01.250Z,86.60
2023-03-18T18:48:35.689Z,86.82
2023-03-18T18:50:49.912Z,86.82
2023-03-18T18:51:04.265Z,86.95
2023-03-18T18:53:36.635Z,87.94
2023-03-18T18:55:49.923Z,87.94
2023-03-18T18:56:18.519Z,87.84
2023-03-18T18:58:48.748Z,88.61
2023-03-18T19:00:50.111Z,88.61
2023-03-18T19:01:15.464Z,89.41
2023-03-18T19:03:42.852Z,88.98
2023-03-18T19:05:49.916Z,88.98
2023-03-18T19:06:31.220Z,88.69
2023-03-18T19:09:10.910Z,88.75
2023-03-18T19:10:49.941Z,88.75
2023-03-18T19:11:37.331Z,88.27
2023-03-18T19:14:24.494Z,88.66
2023-03-18T19:15:49.924Z,88.66
2023-03-18T19:16:52.290Z,87.76
2023-03-18T19:19:31.254Z,87.87
2023-03-18T19:20:50.066Z,87.87
2023-03-18T19:21:58.725Z,87.68
2023-03-18T19:24:37.241Z,87.57
2023-03-18T19:25:50.027Z,87.57
2023-03-18T19:27:07.070Z,87.56
2023-03-18T19:29:34.262Z,87.16
2023-03-18T19:30:49.946Z,87.16
2023-03-18T19:32:03.708Z,86.61
2023-03-18T19:34:32.580Z,85.65
2023-03-18T19:35:49.990Z,85.65
2023-03-18T19:37:02.671Z,84.96
2023-03-18T19:39:29.307Z,85.26
2023-03-18T19:40:49.961Z,85.26
2023-03-18T19:41:55.722Z,85.38
2023-03-18T19:44:24.956Z,85.29
2023-03-18T19:45:51.480Z,85.29
2023-03-18T19:46:56.852Z,85.47
2023-03-18T19:49:24.899Z,85.28
2023-03-18T19:50:52.007Z,85.28
2023-03-18T19:51:51.971Z,86.23
2023-03-18T19:54:27.200Z,85.75
2023-03-18T19:55:49.930Z,85.75
2023-03-18T19:56:55.718Z,85.57
2023-03-18T19:59:24.079Z,85.66
2023-03-18T20:00:49.977Z,85.66
2023-03-18T20:01:51.681Z,86.39
2023-03-18T20:04:19.777Z,86.42
2023-03-18T20:05:49.946Z,86.42
2023-03-18T20:06:50.782Z,86.94
2023-03-18T20:09:19.046Z,86.80
2023-03-18T20:10:49.993Z,86.80
2023-03-18T20:11:47.820Z,87.13
2023-03-18T20:14:29.537Z,87.56
2023-03-18T20:15:49.999Z,87.56
2023-03-18T20:16:56.204Z,87.85
2023-03-18T20:19:22.853Z,88.28
2023-03-18T20:20:50.077Z,88.28
2023-03-18T20:21:49.603Z,88.37
2023-03-18T20:24:23.321Z,88.65
2023-03-18T20:25:50.354Z,88.65
2023-03-18T20:26:49.737Z,89.03
2023-03-18T20:29:24.017Z,89.50
2023-03-18T20:30:49.957Z,89.50
2023-03-18T20:31:50.683Z,90.38
2023-03-18T20:34:17.404Z,90.61
2023-03-18T20:35:49.996Z,90.61
2023-03-18T20:36:43.780Z,91.33
2023-03-18T20:39:20.474Z,91.23
2023-03-18T20:40:49.981Z,91.23
2023-03-18T20:41:47.540Z,91.69
2023-03-18T20:44:14.225Z,91.56
2023-03-18T20:45:49.982Z,91.56
2023-03-18T20:46:42.696Z,91.64
2023-03-18T20:49:09.508Z,91.65
2023-03-18T20:50:49.950Z,91.65
2023-03-18T20:51:40.793Z,91.44
2023-03-18T20:54:18.950Z,91.48
2023-03-18T20:55:49.983Z,91.48
2023-03-18T20:56:46.846Z,91.77
2023-03-18T20:59:13.928Z,91.56
2023-03-18T21:00:50.159Z,91.56
2023-03-18T21:01:41.180Z,91.03
2023-03-18T21:04:11.755Z,91.41
2023-03-18T21:05:49.959Z,91.41
2023-03-18T21:06:39.300Z,91.07
2023-03-18T21:09:09.721Z,90.58
2023-03-18T21:10:49.975Z,90.58
2023-03-18T21:11:37.064Z,90.82
2023-03-18T21:14:04.795Z,90.58
2023-03-18T21:15:50.024Z,90.58
2023-03-18T21:16:36.446Z,90.68
2023-03-18T21:19:04.058Z,90.89
2023-03-18T21:20:49.938Z,90.89